createdAt,value
2016-08-03T00:00:59.476Z,68.68
2016-08-03T00:01:59.510Z,68.96
2016-08-03T00:03:00.242Z,68.87
2016-08-03T00:03:59.575Z,69.64
2016-08-03T00:04:59.585Z,68.87
2016-08-03T00:05:59.611Z,68.87
2016-08-03T00:06:59.641Z,68.96
2016-08-03T00:08:00.376Z,69.06
2016-08-03T00:08:59.691Z,69.54
2016-08-03T00:09:59.720Z,69.25
2016-08-03T00:11:00.457Z,68.38
2016-08-03T00:11:59.790Z,69.15
2016-08-03T00:12:59.801Z,68.38
2016-08-03T00:13:59.828Z,68.29
2016-08-03T00:14:59.856Z,68.48
2016-08-03T00:16:00.592Z,68.48
2016-08-03T00:16:59.909Z,68.1
2016-08-03T00:17:59.936Z,68.68
2016-08-03T00:18:59.965Z,68.29
2016-08-03T00:20:00.007Z,67.9
2016-08-03T00:21:00.728Z,68.87
2016-08-03T00:22:00.044Z,68.68
2016-08-03T00:23:00.068Z,68.68
2016-08-03T00:24:00.099Z,68.48
2016-08-03T00:25:00.126Z,68.48
2016-08-03T00:26:00.154Z,68.19
2016-08-03T00:27:00.193Z,68.29
2016-08-03T00:28:00.225Z,68.19
2016-08-03T00:29:00.235Z,68.19
2016-08-03T00:30:00.263Z,68.48
2016-08-03T00:31:00.998Z,67.81
2016-08-03T00:32:01.025Z,68.19
2016-08-03T00:33:00.341Z,67.9
2016-08-03T00:34:00.369Z,68.19
2016-08-03T00:35:00.411Z,68.48
2016-08-03T00:36:00.442Z,68.1
2016-08-03T00:37:00.461Z,68.38
2016-08-03T00:38:00.480Z,68.48
2016-08-03T00:39:00.504Z,68.68
2016-08-03T00:40:01.243Z,68.48
2016-08-03T00:41:00.557Z,67.71
2016-08-03T00:42:01.299Z,68.68
2016-08-03T00:43:01.323Z,69.06
2016-08-03T00:44:00.660Z,68.58
2016-08-03T00:45:00.667Z,68.38
2016-08-03T00:46:00.695Z,68.77
2016-08-03T00:47:00.723Z,68.19
2016-08-03T00:48:00.750Z,68.48
2016-08-03T00:49:00.777Z,68.48
2016-08-03T00:50:00.808Z,68.44
2016-08-03T00:51:00.830Z,68.74
2016-08-03T00:52:00.875Z,68.93
2016-08-03T00:53:00.884Z,69.45
2016-08-03T00:54:00.912Z,69.12
2016-08-03T00:55:00.943Z,69.02
2016-08-03T00:56:00.964Z,69.51
2016-08-03T00:57:00.992Z,68.84
2016-08-03T00:58:01.024Z,68.74
2016-08-03T00:59:01.046Z,68.93
2016-08-03T01:00:01.092Z,68.93
2016-08-03T01:01:01.864Z,69.02
2016-08-03T01:02:01.128Z,68.44
2016-08-03T01:03:01.154Z,68.84
2016-08-03T01:04:01.183Z,68.44
2016-08-03T01:05:01.209Z,68.35
2016-08-03T01:06:01.281Z,68.35
2016-08-03T01:07:01.263Z,68.93
2016-08-03T01:08:01.309Z,68.35
2016-08-03T01:09:01.316Z,68.54
2016-08-03T01:10:01.344Z,68.44
2016-08-03T01:11:01.369Z,68.74
2016-08-03T01:12:01.394Z,68.19
2016-08-03T01:13:01.424Z,68
2016-08-03T01:14:01.450Z,68
2016-08-03T01:15:01.479Z,67.81
2016-08-03T01:16:01.526Z,67.71
2016-08-03T01:17:01.531Z,67.52
2016-08-03T01:18:01.557Z,67.42
2016-08-03T01:19:01.586Z,67.9
2016-08-03T01:20:01.614Z,67.81
2016-08-03T01:21:01.638Z,67.33
2016-08-03T01:22:01.665Z,67.42
2016-08-03T01:23:01.692Z,67.61
2016-08-03T01:24:01.743Z,67.33
2016-08-03T01:25:01.748Z,66.85
2016-08-03T01:26:02.481Z,66.65
2016-08-03T01:27:01.801Z,66.65
2016-08-03T01:28:01.828Z,66.94
2016-08-03T01:29:01.854Z,66.65
2016-08-03T01:30:01.887Z,66.85
2016-08-03T01:31:01.907Z,66.75
2016-08-03T01:32:01.936Z,66.55
2016-08-03T01:33:01.963Z,66.46
2016-08-03T01:34:01.989Z,66.75
2016-08-03T01:35:02.019Z,66.55
2016-08-03T01:36:02.044Z,66.85
2016-08-03T01:37:02.796Z,67.42
2016-08-03T01:38:02.097Z,67.61
2016-08-03T01:39:02.125Z,67.42
2016-08-03T01:40:02.152Z,67.23
2016-08-03T01:41:02.178Z,67.23
2016-08-03T01:42:02.205Z,67.13
2016-08-03T01:43:02.235Z,67.42
2016-08-03T01:45:02.287Z,67.03
2016-08-03T01:46:02.313Z,67.61
2016-08-03T01:47:03.051Z,67.61
2016-08-03T01:48:02.369Z,67.33
2016-08-03T01:49:02.394Z,67.42
2016-08-03T01:50:02.420Z,67.42
2016-08-03T01:51:02.447Z,67.71
2016-08-03T01:52:02.478Z,67.52
2016-08-03T01:53:03.216Z,67.61
2016-08-03T01:54:02.531Z,67.33
2016-08-03T01:55:02.557Z,67.71
2016-08-03T01:56:02.584Z,67.61
2016-08-03T01:57:02.612Z,67.61
2016-08-03T01:58:02.638Z,67.52
2016-08-03T02:00:02.692Z,67.81
2016-08-03T02:01:02.773Z,67.42
2016-08-03T02:02:02.765Z,67.52
2016-08-03T02:03:02.774Z,67.61
2016-08-03T02:04:02.828Z,68.29
2016-08-03T02:05:03.537Z,67.71
2016-08-03T02:06:02.854Z,68.1
2016-08-03T02:07:02.881Z,67.71
2016-08-03T02:08:03.620Z,67.9
2016-08-03T02:09:02.937Z,68
2016-08-03T02:10:02.962Z,68.1
2016-08-03T02:11:03.697Z,67.61
2016-08-03T02:12:03.736Z,67.33
2016-08-03T02:13:03.059Z,67.52
2016-08-03T02:14:03.072Z,67.13
2016-08-03T02:15:03.098Z,67.03
2016-08-03T02:16:03.125Z,67.23
2016-08-03T02:17:03.152Z,66.75
2016-08-03T02:18:03.180Z,67.03
2016-08-03T02:19:03.208Z,67.61
2016-08-03T02:20:03.233Z,67.52
2016-08-03T02:21:03.262Z,67.33
2016-08-03T02:22:03.289Z,67.81
2016-08-03T02:23:03.315Z,67.71
2016-08-03T02:24:03.342Z,68.1
2016-08-03T02:25:03.371Z,67.81
2016-08-03T02:26:03.396Z,68.1
2016-08-03T02:27:03.423Z,68.1
2016-08-03T02:28:03.452Z,67.9
2016-08-03T02:29:03.477Z,68.58
2016-08-03T02:30:03.504Z,68.1
2016-08-03T02:31:03.531Z,68.29
2016-08-03T02:32:04.266Z,68.48
2016-08-03T02:33:03.588Z,68.87
2016-08-03T02:34:03.632Z,68.38
2016-08-03T02:35:03.640Z,68.77
2016-08-03T02:36:04.375Z,68.38
2016-08-03T02:37:03.692Z,68.38
2016-08-03T02:38:04.429Z,68.38
2016-08-03T02:39:03.748Z,69.25
2016-08-03T02:40:03.774Z,68.96
2016-08-03T02:41:03.802Z,69.02
2016-08-03T02:42:04.543Z,69.12
2016-08-03T02:43:03.857Z,68.84
2016-08-03T02:44:03.885Z,69.02
2016-08-03T02:45:03.917Z,69.6
2016-08-03T02:46:03.938Z,69.22
2016-08-03T02:47:03.962Z,69.51
2016-08-03T02:48:03.991Z,69.51
2016-08-03T02:49:04.016Z,69.41
2016-08-03T02:50:04.045Z,69.51
2016-08-03T02:51:04.070Z,69.79
2016-08-03T02:52:04.098Z,69.31
2016-08-03T02:53:04.121Z,69.51
2016-08-03T02:54:04.163Z,69.22
2016-08-03T02:55:04.179Z,69.41
2016-08-03T02:56:04.206Z,69.41
2016-08-03T02:57:04.233Z,69.89
2016-08-03T02:58:04.258Z,69.79
2016-08-03T02:59:04.286Z,69.79
2016-08-03T03:00:04.311Z,69.31
2016-08-03T03:01:04.340Z,69.41
2016-08-03T03:02:04.363Z,69.79
2016-08-03T03:03:04.393Z,69.79
2016-08-03T03:04:04.418Z,69.22
2016-08-03T03:05:04.447Z,69.6
2016-08-03T03:06:04.474Z,69.89
2016-08-03T03:07:04.501Z,69.22
2016-08-03T03:08:04.527Z,69.51
2016-08-03T03:09:04.555Z,69.51
2016-08-03T03:10:04.578Z,69.7
2016-08-03T03:11:04.606Z,69.22
2016-08-03T03:12:04.632Z,69.51
2016-08-03T03:13:04.679Z,69.79
2016-08-03T03:14:04.686Z,69.7
2016-08-03T03:15:04.714Z,70.28
2016-08-03T03:16:04.741Z,70.09
2016-08-03T03:17:04.767Z,69.99
2016-08-03T03:18:04.797Z,69.99
2016-08-03T03:19:04.819Z,69.51
2016-08-03T03:20:04.849Z,69.79
2016-08-03T03:21:04.877Z,69.41
2016-08-03T03:22:04.906Z,70.18
2016-08-03T03:23:04.929Z,70.28
2016-08-03T03:24:04.954Z,70.09
2016-08-03T03:25:04.980Z,70.09
2016-08-03T03:26:05.007Z,70.09
2016-08-03T03:27:05.047Z,70.37
2016-08-03T03:28:05.060Z,70.28
2016-08-03T03:29:05.091Z,70.28
2016-08-03T03:30:05.117Z,70.28
2016-08-03T03:31:05.144Z,70.28
2016-08-03T03:32:05.169Z,70.18
2016-08-03T03:33:05.194Z,70.09
2016-08-03T03:34:05.224Z,70.28
2016-08-03T03:35:05.254Z,69.99
2016-08-03T03:36:05.278Z,70.47
2016-08-03T03:37:05.303Z,70.31
2016-08-03T03:38:05.330Z,70.28
2016-08-03T03:39:05.358Z,70.18
2016-08-03T03:40:06.093Z,70.47
2016-08-03T03:41:05.409Z,70.47
2016-08-03T03:42:05.438Z,69.99
2016-08-03T03:43:05.466Z,69.7
2016-08-03T03:44:05.491Z,70.02
2016-08-03T03:45:05.524Z,69.79
2016-08-03T03:46:05.547Z,70.18
2016-08-03T03:47:05.572Z,69.99
2016-08-03T03:48:05.596Z,70.31
2016-08-03T03:49:05.624Z,69.79
2016-08-03T03:50:05.649Z,69.31
2016-08-03T03:51:05.682Z,70.09
2016-08-03T03:52:05.708Z,69.22
2016-08-03T03:53:05.733Z,69.41
2016-08-03T03:54:05.761Z,69.45
2016-08-03T03:55:05.790Z,69.45
2016-08-03T03:56:05.820Z,69.25
2016-08-03T03:57:05.839Z,69.45
2016-08-03T03:58:05.868Z,69.31
2016-08-03T03:59:05.892Z,69.41
2016-08-03T04:00:05.922Z,69.73
2016-08-03T04:01:06.707Z,70.18
2016-08-03T04:02:05.977Z,70.18
2016-08-03T04:03:06.006Z,69.99
2016-08-03T04:04:06.739Z,70.09
2016-08-03T04:05:06.058Z,70.18
2016-08-03T04:06:06.079Z,70.18
2016-08-03T04:07:06.115Z,70.37
2016-08-03T04:08:06.138Z,70.37
2016-08-03T04:09:06.173Z,70.37
2016-08-03T04:10:06.193Z,70.28
2016-08-03T04:11:06.218Z,70.66
2016-08-03T04:12:06.242Z,70.95
2016-08-03T04:13:06.267Z,70.66
2016-08-03T04:14:06.293Z,70.66
2016-08-03T04:15:06.320Z,70.86
2016-08-03T04:16:06.350Z,70.95
2016-08-03T04:17:06.376Z,70.56
2016-08-03T04:18:06.407Z,70.86
2016-08-03T04:19:06.434Z,70.86
2016-08-03T04:20:06.458Z,70.47
2016-08-03T04:21:06.481Z,71.04
2016-08-03T04:22:06.510Z,70.37
2016-08-03T04:23:06.535Z,70.47
2016-08-03T04:24:06.561Z,70.47
2016-08-03T04:25:06.589Z,70.76
2016-08-03T04:26:06.628Z,70.76
2016-08-03T04:27:06.653Z,71.04
2016-08-03T04:28:06.669Z,71.24
2016-08-03T04:29:06.700Z,71.24
2016-08-03T04:30:06.725Z,71.43
2016-08-03T04:31:06.753Z,70.95
2016-08-03T04:32:06.779Z,71.14
2016-08-03T04:33:06.810Z,70.76
2016-08-03T04:34:06.841Z,70.95
2016-08-03T04:35:06.855Z,70.86
2016-08-03T04:36:06.885Z,70.95
2016-08-03T04:37:06.911Z,70.95
2016-08-03T04:38:06.945Z,70.37
2016-08-03T04:39:07.673Z,70.76
2016-08-03T04:40:06.993Z,70.86
2016-08-03T04:41:07.020Z,71.04
2016-08-03T04:42:07.771Z,71.04
2016-08-03T04:43:07.071Z,71.14
2016-08-03T04:44:07.097Z,70.56
2016-08-03T04:45:07.127Z,70.47
2016-08-03T04:46:07.150Z,70.37
2016-08-03T04:47:07.200Z,70.37
2016-08-03T04:48:07.206Z,69.99
2016-08-03T04:49:07.235Z,70.18
2016-08-03T04:50:07.279Z,70.47
2016-08-03T04:51:07.288Z,70.09
2016-08-03T04:52:07.316Z,70.12
2016-08-03T04:53:07.342Z,70.21
2016-08-03T04:54:07.367Z,69.25
2016-08-03T04:55:07.400Z,69.41
2016-08-03T04:56:07.421Z,69.73
2016-08-03T04:57:07.447Z,69.64
2016-08-03T04:58:07.494Z,69.45
2016-08-03T04:59:07.506Z,69.35
2016-08-03T05:00:07.529Z,69.15
2016-08-03T05:01:07.554Z,69.25
2016-08-03T05:02:07.587Z,69.93
2016-08-03T05:03:07.609Z,69.54
2016-08-03T05:04:08.346Z,69.45
2016-08-03T05:05:08.375Z,68.96
2016-08-03T05:06:07.712Z,68.96
2016-08-03T05:07:07.722Z,68.87
2016-08-03T05:08:07.742Z,68.87
2016-08-03T05:09:07.769Z,69.35
2016-08-03T05:10:07.799Z,69.25
2016-08-03T05:11:07.823Z,69.41
2016-08-03T05:12:08.559Z,69.45
2016-08-03T05:13:07.876Z,69.45
2016-08-03T05:14:07.903Z,69.45
2016-08-03T05:15:08.641Z,69.35
2016-08-03T05:16:07.959Z,68.87
2016-08-03T05:17:08.693Z,68.87
2016-08-03T05:18:08.017Z,69.25
2016-08-03T05:19:08.037Z,69.45
2016-08-03T05:20:08.065Z,69.45
2016-08-03T05:21:08.091Z,69.64
2016-08-03T05:22:08.119Z,69.51
2016-08-03T05:23:08.157Z,69.45
2016-08-03T05:24:08.172Z,69.54
2016-08-03T05:25:08.206Z,69.45
2016-08-03T05:26:08.935Z,70.02
2016-08-03T05:27:08.253Z,69.73
2016-08-03T05:28:08.989Z,69.35
2016-08-03T05:29:08.308Z,69.73
2016-08-03T05:30:08.332Z,69.6
2016-08-03T05:31:09.072Z,70.18
2016-08-03T05:32:08.388Z,70.09
2016-08-03T05:33:08.416Z,70.47
2016-08-03T05:34:08.440Z,70.41
2016-08-03T05:35:08.469Z,70.28
2016-08-03T05:36:08.498Z,70.18
2016-08-03T05:37:08.523Z,70.09
2016-08-03T05:38:08.549Z,70.09
2016-08-03T05:39:08.590Z,69.99
2016-08-03T05:40:08.603Z,70.31
2016-08-03T05:41:08.638Z,70.5
2016-08-03T05:42:08.657Z,69.83
2016-08-03T05:43:08.684Z,70.21
2016-08-03T05:44:09.419Z,70.21
2016-08-03T05:45:08.754Z,70.12
2016-08-03T05:46:08.765Z,69.54
2016-08-03T05:47:08.809Z,69.93
2016-08-03T05:48:08.817Z,69.45
2016-08-03T05:49:08.845Z,69.06
2016-08-03T05:50:08.871Z,69.06
2016-08-03T05:51:08.897Z,68.87
2016-08-03T05:52:08.925Z,68.58
2016-08-03T05:53:08.952Z,68.71
2016-08-03T05:54:08.978Z,68.42
2016-08-03T05:55:09.024Z,68.58
2016-08-03T05:56:09.031Z,68.38
2016-08-03T05:57:09.058Z,68.42
2016-08-03T05:58:09.085Z,68.19
2016-08-03T05:59:09.112Z,68.61
2016-08-03T06:00:09.140Z,68.32
2016-08-03T06:01:09.171Z,68.04
2016-08-03T06:02:09.197Z,67.84
2016-08-03T06:03:09.243Z,67.55
2016-08-03T06:04:09.248Z,67.74
2016-08-03T06:05:09.284Z,68.13
2016-08-03T06:06:09.303Z,67.74
2016-08-03T06:07:09.330Z,68.13
2016-08-03T06:08:09.356Z,68.04
2016-08-03T06:09:10.102Z,68.32
2016-08-03T06:10:10.122Z,67.74
2016-08-03T06:11:09.457Z,67.46
2016-08-03T06:12:09.467Z,67.65
2016-08-03T06:13:09.491Z,67.16
2016-08-03T06:14:09.519Z,67.26
2016-08-03T06:15:09.547Z,67.36
2016-08-03T06:16:09.576Z,66.69
2016-08-03T06:17:09.609Z,67.26
2016-08-03T06:18:09.629Z,67.26
2016-08-03T06:19:09.675Z,66.97
2016-08-03T06:20:09.683Z,66.78
2016-08-03T06:21:09.711Z,65.91
2016-08-03T06:22:09.738Z,65.53
2016-08-03T06:23:09.765Z,66.59
2016-08-03T06:24:09.792Z,66.59
2016-08-03T06:25:09.820Z,66.2
2016-08-03T06:26:09.845Z,66.52
2016-08-03T06:27:09.893Z,66.33
2016-08-03T06:28:09.904Z,66.3
2016-08-03T06:29:09.933Z,66.78
2016-08-03T06:30:09.955Z,66.59
2016-08-03T06:31:09.984Z,65.56
2016-08-03T06:32:10.011Z,65.56
2016-08-03T06:33:10.037Z,65.47
2016-08-03T06:34:10.145Z,65.37
2016-08-03T06:35:10.110Z,65.37
2016-08-03T06:36:10.121Z,65.08
2016-08-03T06:37:10.152Z,65.75
2016-08-03T06:38:10.180Z,66.62
2016-08-03T06:39:10.214Z,65.37
2016-08-03T06:40:10.229Z,64.63
2016-08-03T06:41:10.259Z,65.78
2016-08-03T06:42:10.288Z,65.11
2016-08-03T06:43:10.326Z,64.34
2016-08-03T06:44:10.340Z,64.34
2016-08-03T06:45:10.370Z,63.76
2016-08-03T06:46:10.398Z,63.28
2016-08-03T06:47:10.427Z,62.6
2016-08-03T06:48:10.455Z,63.47
2016-08-03T06:49:10.496Z,63.57
2016-08-03T06:50:10.577Z,63.5
2016-08-03T06:51:10.542Z,63.4
2016-08-03T06:52:11.274Z,62.73
2016-08-03T06:53:10.593Z,63.12
2016-08-03T06:54:10.622Z,63.12
2016-08-03T06:55:10.650Z,63.4
2016-08-03T06:56:11.439Z,63.12
2016-08-03T06:57:10.703Z,62.73
2016-08-03T06:58:10.747Z,63.21
2016-08-03T06:59:10.762Z,62.54
2016-08-03T07:00:10.790Z,63.05
2016-08-03T07:01:10.818Z,62.86
2016-08-03T07:02:10.847Z,62.57
2016-08-03T07:03:10.874Z,62.18
2016-08-03T07:04:10.902Z,61.12
2016-08-03T07:05:10.928Z,61.22
2016-08-03T07:06:10.965Z,61.99
2016-08-03T07:07:10.992Z,61.31
2016-08-03T07:08:11.013Z,60.93
2016-08-03T07:09:11.046Z,60.83
2016-08-03T07:10:11.070Z,60.93
2016-08-03T07:11:11.100Z,59.86
2016-08-03T07:12:11.127Z,59.31
2016-08-03T07:13:11.155Z,59.51
2016-08-03T07:14:11.182Z,58.93
2016-08-03T07:15:11.921Z,57.96
2016-08-03T07:16:11.241Z,58.06
2016-08-03T07:17:11.269Z,59.31
2016-08-03T07:18:11.297Z,59.31
2016-08-03T07:19:11.328Z,59.22
2016-08-03T07:20:11.353Z,57.87
2016-08-03T07:21:11.382Z,57.96
2016-08-03T07:22:11.417Z,57.96
2016-08-03T07:23:11.439Z,57.77
2016-08-03T07:24:12.176Z,57.38
2016-08-03T07:25:11.508Z,56.61
2016-08-03T07:26:11.523Z,56.32
2016-08-03T07:27:11.550Z,56.13
2016-08-03T07:28:11.584Z,55.55
2016-08-03T07:29:11.609Z,55.16
2016-08-03T07:30:11.638Z,56.03
2016-08-03T07:31:11.672Z,56.32
2016-08-03T07:32:11.696Z,56.35
2016-08-03T07:33:11.727Z,56.35
2016-08-03T07:34:11.763Z,56.25
2016-08-03T07:35:11.782Z,55.67
2016-08-03T07:36:11.810Z,54.99
2016-08-03T07:37:11.839Z,56.05
2016-08-03T07:38:11.864Z,55.38
2016-08-03T07:39:11.897Z,56.45
2016-08-03T07:40:11.938Z,56.63
2016-08-03T07:41:11.954Z,55.67
2016-08-03T07:42:11.981Z,55.51
2016-08-03T07:43:12.012Z,54.53
2016-08-03T07:44:12.041Z,54.93
2016-08-03T07:45:12.090Z,54.53
2016-08-03T07:46:12.103Z,52.99
2016-08-03T07:47:12.148Z,52.02
2016-08-03T07:48:12.157Z,52.41
2016-08-03T07:49:12.189Z,53.09
2016-08-03T07:50:12.216Z,52.53
2016-08-03T07:51:12.247Z,52.41
2016-08-03T07:52:12.275Z,53.02
2016-08-03T07:53:12.305Z,51.47
2016-08-03T07:54:12.333Z,52.14
2016-08-03T07:55:12.363Z,53.31
2016-08-03T07:56:12.392Z,52.34
2016-08-03T07:57:12.421Z,52.44
2016-08-03T07:58:12.449Z,53.69
2016-08-03T07:59:12.477Z,53.23
2016-08-03T08:00:12.507Z,52.46
2016-08-03T08:01:13.245Z,52.27
2016-08-03T08:02:12.566Z,52.27
2016-08-03T08:03:12.594Z,52.46
2016-08-03T08:04:13.341Z,52.78
2016-08-03T08:05:12.653Z,51.68
2016-08-03T08:06:12.682Z,52.08
2016-08-03T08:07:12.712Z,51.68
2016-08-03T08:08:14.130Z,52.46
2016-08-03T08:09:14.394Z,52.87
2016-08-03T08:10:12.803Z,53.36
2016-08-03T08:12:12.863Z,53.17
2016-08-03T08:13:12.892Z,52.97
2016-08-03T08:14:13.631Z,52.49
2016-08-03T08:15:12.950Z,52.1
2016-08-03T08:16:12.979Z,52.49
2016-08-03T08:17:13.009Z,52.51
2016-08-03T08:18:13.040Z,51.93
2016-08-03T08:19:13.071Z,52.61
2016-08-03T08:20:13.099Z,51.25
2016-08-03T08:21:13.130Z,50.19
2016-08-03T08:22:13.161Z,49.99
2016-08-03T08:23:13.188Z,49.41
2016-08-03T08:24:13.225Z,49.9
2016-08-03T08:25:13.250Z,49.32
2016-08-03T08:26:13.283Z,49.61
2016-08-03T08:27:13.311Z,50.29
2016-08-03T08:28:13.343Z,50.09
2016-08-03T08:29:13.392Z,49.99
2016-08-03T08:30:13.590Z,48.95
2016-08-03T08:31:15.089Z,48.54
2016-08-03T08:32:15.178Z,49.15
2016-08-03T08:33:13.491Z,49.51
2016-08-03T08:34:13.521Z,50.31
2016-08-03T08:35:13.553Z,49.44
2016-08-03T08:36:13.595Z,50.21
2016-08-03T08:37:13.614Z,50.02
2016-08-03T08:38:13.642Z,49.34
2016-08-03T08:39:13.675Z,49.05
2016-08-03T08:40:13.703Z,49.63
2016-08-03T08:41:13.732Z,50.41
2016-08-03T08:42:13.765Z,50.24
2016-08-03T08:43:13.791Z,50.31
2016-08-03T08:44:14.539Z,49.92
2016-08-03T08:45:13.855Z,49.82
2016-08-03T08:46:13.884Z,48.66
2016-08-03T08:47:13.915Z,50.14
2016-08-03T08:48:13.942Z,50.34
2016-08-03T08:49:13.974Z,51.21
2016-08-03T08:50:14.005Z,51.31
2016-08-03T08:51:14.036Z,48.78
2016-08-03T08:52:14.090Z,48.78
2016-08-03T08:53:14.808Z,48.3
2016-08-03T08:54:14.839Z,48.69
2016-08-03T08:55:14.158Z,49.17
2016-08-03T08:56:14.190Z,49.56
2016-08-03T08:57:14.224Z,50.16
2016-08-03T08:58:14.251Z,48.03
2016-08-03T08:59:14.279Z,48.52
2016-08-03T09:00:14.311Z,47.25
2016-08-03T09:01:14.406Z,46.67
2016-08-03T09:02:14.371Z,46.77
2016-08-03T09:03:14.404Z,47.72
2016-08-03T09:04:14.433Z,48.03
2016-08-03T09:05:14.464Z,49.1
2016-08-03T09:06:14.496Z,48.61
2016-08-03T09:07:14.527Z,48.13
2016-08-03T09:08:14.556Z,49.29
2016-08-03T09:09:14.586Z,48.64
2016-08-03T09:10:14.628Z,49.22
2016-08-03T09:11:14.651Z,48.83
2016-08-03T09:12:14.683Z,48.35
2016-08-03T09:13:14.712Z,47.57
2016-08-03T09:14:14.743Z,48.05
2016-08-03T09:15:14.773Z,47.57
2016-08-03T09:16:14.803Z,46.89
2016-08-03T09:17:14.834Z,46.89
2016-08-03T09:18:14.868Z,45.92
2016-08-03T09:19:14.898Z,45.75
2016-08-03T09:20:14.929Z,46.62
2016-08-03T09:21:14.960Z,48.08
2016-08-03T09:22:14.992Z,46.91
2016-08-03T09:23:15.022Z,48.18
2016-08-03T09:24:15.053Z,48.57
2016-08-03T09:25:15.084Z,47.71
2016-08-03T09:26:15.121Z,47.03
2016-08-03T09:27:15.152Z,44.89
2016-08-03T09:28:15.890Z,45.67
2016-08-03T09:29:15.210Z,45.57
2016-08-03T09:30:15.240Z,45.18
2016-08-03T09:31:15.272Z,45.48
2016-08-03T09:32:15.304Z,44.51
2016-08-03T09:33:16.050Z,44.31
2016-08-03T09:34:15.370Z,44.62
2016-08-03T09:35:15.398Z,43.44
2016-08-03T09:36:15.431Z,41.42
2016-08-03T09:37:15.462Z,42
2016-08-03T09:38:15.499Z,43.07
2016-08-03T09:39:15.529Z,43.46
2016-08-03T09:40:15.557Z,43.46
2016-08-03T09:41:16.297Z,42.78
2016-08-03T09:42:15.640Z,44.14
2016-08-03T09:43:15.652Z,44.62
2016-08-03T09:44:15.685Z,45.11
2016-08-03T09:45:15.715Z,45.31
2016-08-03T09:46:15.745Z,40.34
2016-08-03T09:47:15.777Z,39.28
2016-08-03T09:48:15.813Z,40.25
2016-08-03T09:49:15.839Z,41.03
2016-08-03T09:50:15.872Z,41.8
2016-08-03T09:51:15.923Z,41.42
2016-08-03T09:52:15.935Z,42.29
2016-08-03T09:53:15.968Z,42.29
2016-08-03T09:54:16.000Z,41.61
2016-08-03T09:55:16.037Z,41.13
2016-08-03T09:56:16.777Z,41.71
2016-08-03T09:57:16.094Z,43.16
2016-08-03T09:58:16.130Z,43.65
2016-08-03T09:59:16.157Z,41.9
2016-08-03T10:00:16.901Z,41.9
2016-08-03T10:01:16.222Z,42
2016-08-03T10:02:16.253Z,42.58
2016-08-03T10:03:16.291Z,43.46
2016-08-03T10:04:16.317Z,44.72
2016-08-03T10:05:16.352Z,44.74
2016-08-03T10:06:16.383Z,43.67
2016-08-03T10:07:17.145Z,43.48
2016-08-03T10:08:16.453Z,44.55
2016-08-03T10:09:16.477Z,44.26
2016-08-03T10:10:16.508Z,42.99
2016-08-03T10:11:16.536Z,43.58
2016-08-03T10:12:16.570Z,44.06
2016-08-03T10:13:16.610Z,44.45
2016-08-03T10:14:17.367Z,44.67
2016-08-03T10:15:16.668Z,44.28
2016-08-03T10:17:16.732Z,43.5
2016-08-03T10:18:16.765Z,43.3
2016-08-03T10:19:16.794Z,42.63
2016-08-03T10:20:16.827Z,41.75
2016-08-03T10:21:16.860Z,41.26
2016-08-03T10:22:16.891Z,41.65
2016-08-03T10:23:16.948Z,41.06
2016-08-03T10:24:16.959Z,40.68
2016-08-03T10:25:16.995Z,41.46
2016-08-03T10:26:17.017Z,41.94
2016-08-03T10:27:17.052Z,41.55
2016-08-03T10:28:17.091Z,40.68
2016-08-03T10:29:17.830Z,40.39
2016-08-03T10:30:17.146Z,39.03
2016-08-03T10:32:17.922Z,39.61
2016-08-03T10:33:17.254Z,38.05
2016-08-03T10:34:17.988Z,39.9
2016-08-03T10:35:17.309Z,39.51
2016-08-03T10:36:17.342Z,40.88
2016-08-03T10:37:18.081Z,40.58
2016-08-03T10:38:17.406Z,41.55
2016-08-03T10:39:17.438Z,42.35
2016-08-03T10:40:17.481Z,41.57
2016-08-03T10:41:17.502Z,42.35
2016-08-03T10:42:17.534Z,38.75
2016-08-03T10:43:17.570Z,39.34
2016-08-03T10:44:17.598Z,40.7
2016-08-03T10:45:17.631Z,41.19
2016-08-03T10:47:17.704Z,39.24
2016-08-03T10:48:18.446Z,39.92
2016-08-03T10:49:17.758Z,40.41
2016-08-03T10:50:17.791Z,41.19
2016-08-03T10:51:17.824Z,41.86
2016-08-03T10:52:17.854Z,40.8
2016-08-03T10:53:17.889Z,41.09
2016-08-03T10:54:17.922Z,42.28
2016-08-03T10:55:17.954Z,40.72
2016-08-03T10:56:17.986Z,40.23
2016-08-03T10:57:18.022Z,39.84
2016-08-03T10:58:18.058Z,41.01
2016-08-03T10:59:18.083Z,41.4
2016-08-03T11:00:18.118Z,41.13
2016-08-03T11:02:18.190Z,38.49
2016-08-03T11:03:18.216Z,38.98
2016-08-03T11:04:18.248Z,39.67
2016-08-03T11:05:18.279Z,40.16
2016-08-03T11:06:18.333Z,39.18
2016-08-03T11:07:18.345Z,39.08
2016-08-03T11:08:18.379Z,38.49
2016-08-03T11:09:19.121Z,37.91
2016-08-03T11:10:18.443Z,37.91
2016-08-03T11:11:18.476Z,38.61
2016-08-03T11:12:18.510Z,38.2
2016-08-03T11:13:18.542Z,38.3
2016-08-03T11:14:18.575Z,38.59
2016-08-03T11:15:18.605Z,38.1
2016-08-03T11:16:18.639Z,38.59
2016-08-03T11:17:18.673Z,37.91
2016-08-03T11:18:18.704Z,38.49
2016-08-03T11:19:18.739Z,39.08
2016-08-03T11:20:18.773Z,38.9
2016-08-03T11:21:18.809Z,39.1
2016-08-03T11:22:18.856Z,39
2016-08-03T11:23:18.872Z,36.96
2016-08-03T11:24:18.913Z,36.47
2016-08-03T11:25:18.936Z,36.47
2016-08-03T11:26:18.969Z,36.86
2016-08-03T11:27:19.003Z,38.42
2016-08-03T11:28:19.035Z,38.61
2016-08-03T11:29:19.777Z,38.42
2016-08-03T11:30:19.101Z,38.22
2016-08-03T11:31:19.136Z,35.3
2016-08-03T11:32:19.166Z,33.73
2016-08-03T11:33:19.200Z,34.61
2016-08-03T11:34:19.235Z,34.81
2016-08-03T11:35:19.267Z,34.53
2016-08-03T11:36:19.300Z,33.44
2016-08-03T11:37:19.339Z,33.54
2016-08-03T11:38:19.372Z,33.15
2016-08-03T11:39:19.399Z,35.2
2016-08-03T11:40:20.423Z,34.61
2016-08-03T11:41:19.464Z,33.62
2016-08-03T11:42:19.499Z,34.71
2016-08-03T11:43:19.531Z,34.52
2016-08-03T11:44:19.564Z,32.86
2016-08-03T11:45:19.603Z,34.42
2016-08-03T11:47:19.670Z,34.22
2016-08-03T11:48:19.695Z,34.71
2016-08-03T11:49:19.730Z,33.73
2016-08-03T11:50:19.763Z,33.83
2016-08-03T11:51:19.798Z,32.86
2016-08-03T11:52:19.832Z,32.86
2016-08-03T11:53:19.865Z,34.73
2016-08-03T11:54:19.897Z,36.49
2016-08-03T11:55:19.930Z,35.9
2016-08-03T11:56:19.968Z,35.41
2016-08-03T11:57:19.995Z,35.71
2016-08-03T11:58:20.037Z,36.49
2016-08-03T11:59:20.063Z,34.92
2016-08-03T12:00:20.095Z,34.83
2016-08-03T12:02:20.159Z,32.87
2016-08-03T12:03:20.906Z,33.85
2016-08-03T12:04:20.237Z,34.14
2016-08-03T12:05:20.265Z,31.6
2016-08-03T12:06:20.297Z,31.31
2016-08-03T12:07:20.328Z,32.58
2016-08-03T12:08:20.360Z,33.85
2016-08-03T12:09:20.408Z,33.17
2016-08-03T12:10:21.138Z,34.24
2016-08-03T12:11:20.462Z,35.04
2016-08-03T12:12:20.514Z,35.33
2016-08-03T12:13:20.527Z,33.77
2016-08-03T12:14:20.562Z,33.58
2016-08-03T12:15:20.596Z,35.04
2016-08-03T12:17:20.661Z,34.65
2016-08-03T12:18:20.694Z,33.18
2016-08-03T12:19:20.728Z,32.79
2016-08-03T12:20:20.762Z,33.28
2016-08-03T12:21:20.995Z,33.09
2016-08-03T12:22:20.836Z,32.89
2016-08-03T12:23:20.875Z,33.09
2016-08-03T12:24:20.895Z,33.77
2016-08-03T12:25:20.929Z,34.55
2016-08-03T12:26:20.964Z,33.67
2016-08-03T12:27:20.999Z,34.36
2016-08-03T12:28:21.032Z,34.65
2016-08-03T12:29:21.064Z,32.71
2016-08-03T12:30:21.114Z,35.14
2016-08-03T12:31:21.133Z,32.99
2016-08-03T12:32:21.165Z,33.77
2016-08-03T12:33:21.200Z,34.94
2016-08-03T12:34:21.235Z,33.38
2016-08-03T12:35:21.272Z,33.48
2016-08-03T12:36:21.302Z,33.77
2016-08-03T12:37:21.337Z,33.46
2016-08-03T12:38:21.368Z,33.38
2016-08-03T12:39:21.421Z,33.58
2016-08-03T12:40:21.433Z,33.18
2016-08-03T12:41:21.471Z,33.97
2016-08-03T12:42:21.503Z,31.72
2016-08-03T12:43:21.536Z,30.65
2016-08-03T12:44:21.566Z,31.33
2016-08-03T12:45:21.601Z,32.6
2016-08-03T12:46:21.636Z,32.5
2016-08-03T12:47:21.667Z,31.82
2016-08-03T12:48:21.701Z,34.55
2016-08-03T12:49:21.740Z,34.65
2016-08-03T12:50:21.771Z,33.28
2016-08-03T12:51:21.803Z,32.21
2016-08-03T12:52:21.839Z,31.33
2016-08-03T12:53:21.882Z,32.99
2016-08-03T12:54:21.907Z,32.78
2016-08-03T12:55:21.938Z,32.39
2016-08-03T12:56:21.976Z,32.89
2016-08-03T12:57:22.005Z,31.92
2016-08-03T12:58:22.038Z,32.79
2016-08-03T12:59:22.072Z,32.7
2016-08-03T13:00:22.887Z,32.99
2016-08-03T13:01:22.138Z,31.15
2016-08-03T13:02:22.172Z,30.57
2016-08-03T13:03:22.213Z,27.44
2016-08-03T13:04:22.237Z,28.2
2016-08-03T13:05:22.274Z,29.18